Home > Products > Valid Products > TAF

000
FTUS43 KDDC 181453 AAA
TAFHYS
TAF AMD
KHYS 181453Z 1815/1912 VRB06KT 5SM BR OVC005
     FM182200 VRB05KT P6SM SCT050 SCT250=



000
FTUS43 KDDC 181453 AAA
TAFHYS
TAF AMD
KHYS 181453Z 1815/1912 VRB06KT 5SM BR OVC005
     FM182200 VRB05KT P6SM SCT050 SCT250=



000
FTUS43 KDDC 181453 AAB
TAFDDC
TAF AMD
KDDC 181453Z 1815/1912 VRB06KT 3SM BR OVC003
     FM190500 20007KT 4SM BR OVC005=



000
FTUS43 KDDC 181453 AAB
TAFDDC
TAF AMD
KDDC 181453Z 1815/1912 VRB06KT 3SM BR OVC003
     FM190500 20007KT 4SM BR OVC005=



000
FTUS43 KDDC 181434 AAA
TAFGCK
TAF AMD
KGCK 181434Z 1815/1912 10007KT 3/4SM BR OVC002
     FM181700 VRB06KT P6SM BKN015
     FM182000 VRB06KT P6SM SCT030=



000
FTUS43 KDDC 181434 AAA
TAFGCK
TAF AMD
KGCK 181434Z 1815/1912 10007KT 3/4SM BR OVC002
     FM181700 VRB06KT P6SM BKN015
     FM182000 VRB06KT P6SM SCT030=



000
FTUS43 KDDC 181223 AAA
TAFDDC
TAF AMD
KDDC 181223Z 1812/1912 VRB06KT 2SM BR OVC003
      TEMPO 1812/1814 1/2SM FG VV002
     FM181600 36008KT P6SM OVC009
     FM190500 20007KT 4SM BR OVC005=



000
FTUS43 KDDC 181223 AAA
TAFDDC
TAF AMD
KDDC 181223Z 1812/1912 VRB06KT 2SM BR OVC003
      TEMPO 1812/1814 1/2SM FG VV002
     FM181600 36008KT P6SM OVC009
     FM190500 20007KT 4SM BR OVC005=



000
FTUS43 KDDC 181223 AAA
TAFDDC
TAF AMD
KDDC 181223Z 1812/1912 VRB06KT 2SM BR OVC003
      TEMPO 1812/1814 1/2SM FG VV002
     FM181600 36008KT P6SM OVC009
     FM190500 20007KT 4SM BR OVC005=



000
FTUS43 KDDC 181223 AAA
TAFDDC
TAF AMD
KDDC 181223Z 1812/1912 VRB06KT 2SM BR OVC003
      TEMPO 1812/1814 1/2SM FG VV002
     FM181600 36008KT P6SM OVC009
     FM190500 20007KT 4SM BR OVC005=



000
FTUS43 KDDC 181141
TAFDDC
TAF
KDDC 181141Z 1812/1912 VRB06KT 5SM BR OVC003
     FM181600 36008KT P6SM OVC009
     FM190500 20007KT 4SM BR OVC005=



000
FTUS43 KDDC 181141
TAFHYS
TAF
KHYS 181141Z 1812/1912 08007KT P6SM OVC005
     FM181800 VRB06KT 5SM BR SCT012 OVC025
     FM182200 VRB05KT P6SM SCT050 SCT250=



000
FTUS43 KDDC 181141
TAFGCK
TAF
KGCK 181141Z 1812/1912 10006KT 3/4SM BR OVC002
      TEMPO 1812/1814 1/2SM FG OVC002
     FM181500 VRB06KT P6SM BKN015
     FM181900 VRB06KT P6SM SCT030=



000
FTUS43 KDDC 181141
TAFDDC
TAF
KDDC 181141Z 1812/1912 VRB06KT 5SM BR OVC003
     FM181600 36008KT P6SM OVC009
     FM190500 20007KT 4SM BR OVC005=



000
FTUS43 KDDC 181141
TAFHYS
TAF
KHYS 181141Z 1812/1912 08007KT P6SM OVC005
     FM181800 VRB06KT 5SM BR SCT012 OVC025
     FM182200 VRB05KT P6SM SCT050 SCT250=



000
FTUS43 KDDC 181141
TAFGCK
TAF
KGCK 181141Z 1812/1912 10006KT 3/4SM BR OVC002
      TEMPO 1812/1814 1/2SM FG OVC002
     FM181500 VRB06KT P6SM BKN015
     FM181900 VRB06KT P6SM SCT030=



000
FTUS43 KDDC 180910 AAB
TAFGCK
TAF AMD
KGCK 180910Z 1809/1906 10006KT P6SM OVC006
     FM181500 VRB06KT P6SM BKN015
     FM181900 VRB06KT P6SM SCT030=



000
FTUS43 KDDC 180910 AAB
TAFGCK
TAF AMD
KGCK 180910Z 1809/1906 10006KT P6SM OVC006
     FM181500 VRB06KT P6SM BKN015
     FM181900 VRB06KT P6SM SCT030=



000
FTUS43 KDDC 180910 AAB
TAFGCK
TAF AMD
KGCK 180910Z 1809/1906 10006KT P6SM OVC006
     FM181500 VRB06KT P6SM BKN015
     FM181900 VRB06KT P6SM SCT030=



000
FTUS43 KDDC 180910 AAB
TAFGCK
TAF AMD
KGCK 180910Z 1809/1906 10006KT P6SM OVC006
     FM181500 VRB06KT P6SM BKN015
     FM181900 VRB06KT P6SM SCT030=



000
FTUS43 KDDC 180907 AAB
TAFDDC
TAF AMD
KDDC 180907Z 1809/1906 VRB06KT P6SM OVC005
     FM181700 36008KT P6SM OVC009
     FM190500 20007KT 4SM BR OVC005=



000
FTUS43 KDDC 180907 AAB
TAFDDC
TAF AMD
KDDC 180907Z 1809/1906 VRB06KT P6SM OVC005
     FM181700 36008KT P6SM OVC009
     FM190500 20007KT 4SM BR OVC005=



000
FTUS43 KDDC 180907 AAB
TAFDDC
TAF AMD
KDDC 180907Z 1809/1906 VRB06KT P6SM OVC005
     FM181700 36008KT P6SM OVC009
     FM190500 20007KT 4SM BR OVC005=



000
FTUS43 KDDC 180727 AAA
TAFHYS
TAF AMD
KHYS 180727Z 1807/1906 08007KT 2SM -SN BR OVC015
     FM181100 VRB06KT 5SM BR OVC025
     FM182200 VRB05KT P6SM SCT050 SCT250=



000
FTUS43 KDDC 180726 AAA
TAFGCK
TAF AMD
KGCK 180726Z 1807/1906 10006KT 4SM BR OVC012
     FM181400 36008KT P6SM OVC015
     FM181800 VRB06KT P6SM SCT020
     FM190500 20007KT P6SM BKN008=



000
FTUS43 KDDC 180726 AAA
TAFGCK
TAF AMD
KGCK 180726Z 1807/1906 10006KT 4SM BR OVC012
     FM181400 36008KT P6SM OVC015
     FM181800 VRB06KT P6SM SCT020
     FM190500 20007KT P6SM BKN008=



000
FTUS43 KDDC 180544
TAFDDC
TAF
KDDC 180544Z 1806/1906 11010KT 1SM -SN OVC004
     FM180800 10008KT P6SM OVC008
     FM181600 36008KT P6SM OVC015
     FM181900 VRB06KT P6SM SCT020
     FM190500 20007KT P6SM OVC005=



000
FTUS43 KDDC 180544
TAFGCK
TAF
KGCK 180544Z 1806/1906 10006KT 4SM BR OVC006
     FM181400 36008KT P6SM OVC015
     FM181800 VRB06KT P6SM SCT020
     FM190500 20007KT P6SM BKN008=



000
FTUS43 KDDC 180544
TAFHYS
TAF
KHYS 180544Z 1806/1906 08007KT 5SM -SN BR OVC015
     FM180800 VRB06KT P6SM OVC025
     FM182200 VRB05KT P6SM SCT050 SCT250=



000
FTUS43 KDDC 180544
TAFHYS
TAF
KHYS 180544Z 1806/1906 08007KT 5SM -SN BR OVC015
     FM180800 VRB06KT P6SM OVC025
     FM182200 VRB05KT P6SM SCT050 SCT250=



000
FTUS43 KDDC 180544
TAFDDC
TAF
KDDC 180544Z 1806/1906 11010KT 1SM -SN OVC004
     FM180800 10008KT P6SM OVC008
     FM181600 36008KT P6SM OVC015
     FM181900 VRB06KT P6SM SCT020
     FM190500 20007KT P6SM OVC005=



000
FTUS43 KDDC 180544
TAFGCK
TAF
KGCK 180544Z 1806/1906 10006KT 4SM BR OVC006
     FM181400 36008KT P6SM OVC015
     FM181800 VRB06KT P6SM SCT020
     FM190500 20007KT P6SM BKN008=



000
FTUS43 KDDC 172336
TAFDDC
TAF
KDDC 172336Z 1800/1824 11010KT 5SM BR OVC004
      TEMPO 1800/1802 3SM -SN BKN004
     FM180200 12010KT 4SM -SN OVC004
      TEMPO 1802/1806 2SM -SN OVC003
     FM180600 11008KT P6SM OVC010=



000
FTUS43 KDDC 172336
TAFHYS
TAF
KHYS 172336Z 1800/1824 09011KT P6SM OVC015
     FM180200 08010KT 4SM -SN OVC004
      TEMPO 1802/1806 2SM -SN OVC003
     FM180800 08007KT P6SM OVC010=



000
FTUS43 KDDC 172336
TAFGCK
TAF
KGCK 172336Z 1800/1824 11010KT P6SM OVC010
     FM180200 10010KT 3SM -SN OVC004
      TEMPO 1802/1805 2SM -SN OVC003
     FM180500 09008KT P6SM OVC010=



000
FTUS43 KDDC 172336
TAFGCK
TAF
KGCK 172336Z 1800/1824 11010KT P6SM OVC010
     FM180200 10010KT 3SM -SN OVC004
      TEMPO 1802/1805 2SM -SN OVC003
     FM180500 09008KT P6SM OVC010=



000
FTUS43 KDDC 172336
TAFDDC
TAF
KDDC 172336Z 1800/1824 11010KT 5SM BR OVC004
      TEMPO 1800/1802 3SM -SN BKN004
     FM180200 12010KT 4SM -SN OVC004
      TEMPO 1802/1806 2SM -SN OVC003
     FM180600 11008KT P6SM OVC010=



000
FTUS43 KDDC 172336
TAFHYS
TAF
KHYS 172336Z 1800/1824 09011KT P6SM OVC015
     FM180200 08010KT 4SM -SN OVC004
      TEMPO 1802/1806 2SM -SN OVC003
     FM180800 08007KT P6SM OVC010=



000
FTUS43 KDDC 172130 AAA
TAFDDC
TAF AMD
KDDC 172130Z 1722/1818 13013KT P6SM OVC010
      TEMPO 1722/1724 3SM BR BKN007
     FM180000 12010KT P6SM OVC007
      TEMPO 1800/1803 P6SM -RASN OVC003
     FM180300 11010KT 2SM -SN OVC003=



000
FTUS43 KDDC 172130 AAA
TAFDDC
TAF AMD
KDDC 172130Z 1722/1818 13013KT P6SM OVC010
      TEMPO 1722/1724 3SM BR BKN007
     FM180000 12010KT P6SM OVC007
      TEMPO 1800/1803 P6SM -RASN OVC003
     FM180300 11010KT 2SM -SN OVC003=



000
FTUS43 KDDC 171720
TAFDDC
TAF
KDDC 171720Z 1718/1818 15013G20KT P6SM BKN150
      TEMPO 1722/1724 BKN020
     FM180000 12010KT P6SM OVC007
      TEMPO 1800/1803 P6SM -RASN OVC003
     FM180300 11010KT 2SM -SN OVC003=



000
FTUS43 KDDC 171720
TAFHYS
TAF
KHYS 171720Z 1718/1818 10010KT P6SM BKN015 OVC150
     FM180000 09010KT P6SM OVC007
      TEMPO 1800/1803 P6SM -RASN OVC003
     FM180300 08007KT 2SM -SN OVC003=



000
FTUS43 KDDC 171720
TAFGCK
TAF
KGCK 171720Z 1718/1818 15013G20KT P6SM BKN150
      TEMPO 1723/1801 BKN020
     FM180100 12010KT P6SM OVC007
      TEMPO 1801/1803 P6SM -RASN OVC003
     FM180300 10010KT 2SM -SN OVC003=



000
FTUS43 KDDC 171720
TAFGCK
TAF
KGCK 171720Z 1718/1818 15013G20KT P6SM BKN150
      TEMPO 1723/1801 BKN020
     FM180100 12010KT P6SM OVC007
      TEMPO 1801/1803 P6SM -RASN OVC003
     FM180300 10010KT 2SM -SN OVC003=



000
FTUS43 KDDC 171720
TAFDDC
TAF
KDDC 171720Z 1718/1818 15013G20KT P6SM BKN150
      TEMPO 1722/1724 BKN020
     FM180000 12010KT P6SM OVC007
      TEMPO 1800/1803 P6SM -RASN OVC003
     FM180300 11010KT 2SM -SN OVC003=



000
FTUS43 KDDC 171720
TAFHYS
TAF
KHYS 171720Z 1718/1818 10010KT P6SM BKN015 OVC150
     FM180000 09010KT P6SM OVC007
      TEMPO 1800/1803 P6SM -RASN OVC003
     FM180300 08007KT 2SM -SN OVC003=



000
FTUS43 KDDC 171503 AAC
TAFHYS
TAF AMD
KHYS 171503Z 1715/1812 12010KT P6SM BKN008 OVC050
     FM180000 12011KT P6SM OVC007
      TEMPO 1800/1803 P6SM -RA OVC007=



000
FTUS43 KDDC 171503 AAC
TAFHYS
TAF AMD
KHYS 171503Z 1715/1812 12010KT P6SM BKN008 OVC050
     FM180000 12011KT P6SM OVC007
      TEMPO 1800/1803 P6SM -RA OVC007=



000
FTUS43 KDDC 171301 AAB
TAFHYS
TAF AMD
KHYS 171301Z 1713/1812 10012KT P6SM OVC060
     FM172200 14012KT P6SM BKN025
     FM180000 12011KT P6SM OVC007
      TEMPO 1800/1803 P6SM -RA OVC007=



000
FTUS43 KDDC 171301 AAB
TAFHYS
TAF AMD
KHYS 171301Z 1713/1812 10012KT P6SM OVC060
     FM172200 14012KT P6SM BKN025
     FM180000 12011KT P6SM OVC007
      TEMPO 1800/1803 P6SM -RA OVC007=



000
FTUS43 KDDC 171210 AAA
TAFHYS
TAF AMD
KHYS 171210Z 1712/1812 10009KT P6SM OVC006
     FM172200 14012KT P6SM BKN025
     FM180000 12011KT P6SM OVC007
      TEMPO 1800/1803 P6SM -RA OVC007=



000
FTUS43 KDDC 171210 AAA
TAFHYS
TAF AMD
KHYS 171210Z 1712/1812 10009KT P6SM OVC006
     FM172200 14012KT P6SM BKN025
     FM180000 12011KT P6SM OVC007
      TEMPO 1800/1803 P6SM -RA OVC007=



000
FTUS43 KDDC 171120
TAFGCK
TAF
KGCK 171120Z 1712/1812 13012KT P6SM BKN200
     FM172300 14012KT P6SM BKN025
     FM180000 12011KT P6SM OVC007
      TEMPO 1800/1803 P6SM -RA OVC007=



000
FTUS43 KDDC 171120
TAFDDC
TAF
KDDC 171120Z 1712/1812 13012KT P6SM BKN200
     FM172200 14012KT P6SM BKN025
     FM180000 12011KT P6SM OVC007
      TEMPO 1800/1803 P6SM -RA OVC007=



000
FTUS43 KDDC 171120
TAFHYS
TAF
KHYS 171120Z 1712/1812 13012KT P6SM BKN200
     FM172200 14012KT P6SM BKN025
     FM180000 12011KT P6SM OVC007
      TEMPO 1800/1803 P6SM -RA OVC007=



000
FTUS43 KDDC 171120
TAFHYS
TAF
KHYS 171120Z 1712/1812 13012KT P6SM BKN200
     FM172200 14012KT P6SM BKN025
     FM180000 12011KT P6SM OVC007
      TEMPO 1800/1803 P6SM -RA OVC007=



000
FTUS43 KDDC 171120
TAFGCK
TAF
KGCK 171120Z 1712/1812 13012KT P6SM BKN200
     FM172300 14012KT P6SM BKN025
     FM180000 12011KT P6SM OVC007
      TEMPO 1800/1803 P6SM -RA OVC007=



000
FTUS43 KDDC 171120
TAFDDC
TAF
KDDC 171120Z 1712/1812 13012KT P6SM BKN200
     FM172200 14012KT P6SM BKN025
     FM180000 12011KT P6SM OVC007
      TEMPO 1800/1803 P6SM -RA OVC007=



000
FTUS43 KDDC 170535
TAFHYS
TAF
KHYS 170535Z 1706/1806 13012KT P6SM BKN200
     FM172200 14012KT P6SM BKN025
     FM180200 11010KT P6SM OVC007=



000
FTUS43 KDDC 170535
TAFDDC
TAF
KDDC 170535Z 1706/1806 13012KT P6SM BKN200
     FM172200 14012KT P6SM BKN025
     FM180200 11010KT P6SM OVC007=



000
FTUS43 KDDC 170535
TAFGCK
TAF
KGCK 170535Z 1706/1806 13012KT P6SM BKN200
     FM172300 14012KT P6SM BKN025
     FM180300 11010KT P6SM OVC007=



000
FTUS43 KDDC 170535
TAFGCK
TAF
KGCK 170535Z 1706/1806 13012KT P6SM BKN200
     FM172300 14012KT P6SM BKN025
     FM180300 11010KT P6SM OVC007=



000
FTUS43 KDDC 170535
TAFDDC
TAF
KDDC 170535Z 1706/1806 13012KT P6SM BKN200
     FM172200 14012KT P6SM BKN025
     FM180200 11010KT P6SM OVC007=



000
FTUS43 KDDC 170535
TAFHYS
TAF
KHYS 170535Z 1706/1806 13012KT P6SM BKN200
     FM172200 14012KT P6SM BKN025
     FM180200 11010KT P6SM OVC007=



000
FTUS43 KDDC 162320
TAFGCK
TAF
KGCK 162320Z 1700/1724 13008KT P6SM BKN250=



000
FTUS43 KDDC 162320
TAFDDC
TAF
KDDC 162320Z 1700/1724 12008KT P6SM BKN250=



000
FTUS43 KDDC 162320
TAFHYS
TAF
KHYS 162320Z 1700/1724 07007KT P6SM BKN250=



000
FTUS43 KDDC 162320
TAFDDC
TAF
KDDC 162320Z 1700/1724 12008KT P6SM BKN250=



000
FTUS43 KDDC 162320
TAFGCK
TAF
KGCK 162320Z 1700/1724 13008KT P6SM BKN250=



000
FTUS43 KDDC 162320
TAFHYS
TAF
KHYS 162320Z 1700/1724 07007KT P6SM BKN250=



000
FTUS43 KDDC 161724
TAFGCK
TAF
KGCK 161724Z 1618/1718 36007KT P6SM FEW015
     FM170200 12008KT P6SM BKN250=



000
FTUS43 KDDC 161724
TAFDDC
TAF
KDDC 161724Z 1618/1718 36007KT P6SM FEW015
     FM170200 12008KT P6SM BKN250=



000
FTUS43 KDDC 161724
TAFHYS
TAF
KHYS 161724Z 1618/1718 36007KT P6SM SCT015
     FM170200 12008KT P6SM BKN250=



000
FTUS43 KDDC 161724
TAFGCK
TAF
KGCK 161724Z 1618/1718 36007KT P6SM FEW015
     FM170200 12008KT P6SM BKN250=



000
FTUS43 KDDC 161724
TAFHYS
TAF
KHYS 161724Z 1618/1718 36007KT P6SM SCT015
     FM170200 12008KT P6SM BKN250=



000
FTUS43 KDDC 161724
TAFDDC
TAF
KDDC 161724Z 1618/1718 36007KT P6SM FEW015
     FM170200 12008KT P6SM BKN250=



000
FTUS43 KDDC 161120
TAFDDC
TAF
KDDC 161120Z 1612/1712 32010KT P6SM SKC
     FM170200 12008KT P6SM BKN250=



000
FTUS43 KDDC 161120
TAFGCK
TAF
KGCK 161120Z 1612/1712 32010KT P6SM SKC
     FM170200 12008KT P6SM BKN250=



000
FTUS43 KDDC 161120
TAFHYS
TAF
KHYS 161120Z 1612/1712 32010KT P6SM SKC
     FM170200 12008KT P6SM BKN250=



000
FTUS43 KDDC 161120
TAFGCK
TAF
KGCK 161120Z 1612/1712 32010KT P6SM SKC
     FM170200 12008KT P6SM BKN250=



000
FTUS43 KDDC 161120
TAFDDC
TAF
KDDC 161120Z 1612/1712 32010KT P6SM SKC
     FM170200 12008KT P6SM BKN250=



000
FTUS43 KDDC 161120
TAFHYS
TAF
KHYS 161120Z 1612/1712 32010KT P6SM SKC
     FM170200 12008KT P6SM BKN250=



000
FTUS43 KDDC 160536
TAFHYS
TAF
KHYS 160536Z 1606/1706 32014KT P6SM SKC
     FM161300 32007KT P6SM SKC=



000
FTUS43 KDDC 160536
TAFDDC
TAF
KDDC 160536Z 1606/1706 32014KT P6SM SKC
     FM161300 32007KT P6SM SKC=



000
FTUS43 KDDC 160536
TAFGCK
TAF
KGCK 160536Z 1606/1706 32014KT P6SM SKC
     FM161300 32007KT P6SM SKC=



000
FTUS43 KDDC 160536
TAFDDC
TAF
KDDC 160536Z 1606/1706 32014KT P6SM SKC
     FM161300 32007KT P6SM SKC=



000
FTUS43 KDDC 160536
TAFGCK
TAF
KGCK 160536Z 1606/1706 32014KT P6SM SKC
     FM161300 32007KT P6SM SKC=



000
FTUS43 KDDC 160536
TAFHYS
TAF
KHYS 160536Z 1606/1706 32014KT P6SM SKC
     FM161300 32007KT P6SM SKC=



000
FTUS43 KDDC 152336
TAFDDC
TAF
KDDC 152336Z 1600/1624 32022G32KT P6SM BKN035
     FM160500 32012KT P6SM FEW250=



000
FTUS43 KDDC 152336
TAFGCK
TAF
KGCK 152336Z 1600/1624 33018G26KT P6SM BKN035
     FM160400 32012KT P6SM FEW250=



000
FTUS43 KDDC 152336
TAFHYS
TAF
KHYS 152336Z 1600/1624 32022G32KT P6SM BKN035
     FM160800 32012KT P6SM FEW250=



000
FTUS43 KDDC 152336
TAFGCK
TAF
KGCK 152336Z 1600/1624 33018G26KT P6SM BKN035
     FM160400 32012KT P6SM FEW250=



000
FTUS43 KDDC 152336
TAFHYS
TAF
KHYS 152336Z 1600/1624 32022G32KT P6SM BKN035
     FM160800 32012KT P6SM FEW250=



000
FTUS43 KDDC 152336
TAFDDC
TAF
KDDC 152336Z 1600/1624 32022G32KT P6SM BKN035
     FM160500 32012KT P6SM FEW250=



000
FTUS43 KDDC 151850 AAA
TAFHYS
TAF AMD
KHYS 151850Z 1519/1618 32025G35KT P6SM BKN035
     FM152300 32012G20KT P6SM SCT035=



000
FTUS43 KDDC 151850 AAA
TAFHYS
TAF AMD
KHYS 151850Z 1519/1618 32025G35KT P6SM BKN035
     FM152300 32012G20KT P6SM SCT035=



000
FTUS43 KDDC 151721
TAFHYS
TAF
KHYS 151721Z 1518/1618 32025G35KT P6SM BKN030
     FM152300 32012G20KT P6SM SCT035=



000
FTUS43 KDDC 151721
TAFGCK
TAF
KGCK 151721Z 1518/1618 32020G30KT P6SM SCT040
     FM160000 32012G20KT P6SM SCT035=



000
FTUS43 KDDC 151721
TAFDDC
TAF
KDDC 151721Z 1518/1618 32025G35KT P6SM SCT035
     FM160000 32012G20KT P6SM SCT035=



000
FTUS43 KDDC 151721
TAFGCK
TAF
KGCK 151721Z 1518/1618 32020G30KT P6SM SCT040
     FM160000 32012G20KT P6SM SCT035=



000
FTUS43 KDDC 151721
TAFDDC
TAF
KDDC 151721Z 1518/1618 32025G35KT P6SM SCT035
     FM160000 32012G20KT P6SM SCT035=



000
FTUS43 KDDC 151721
TAFHYS
TAF
KHYS 151721Z 1518/1618 32025G35KT P6SM BKN030
     FM152300 32012G20KT P6SM SCT035=



    US Dept of Commerce
    National Oceanic and Atmospheric Administration
    National Weather Service
    1325 East West Highway
    Silver Spring, MD 20910
    Page Author: NWS Internet Services Team
Disclaimer
Information Quality
Credits
Glossary
Privacy Policy
Freedom of Information Act (FOIA)
About Us
Career Opportunities